East Enosburg, Vermont
Current Conditions -  °F | °C
As of 7:55 AM on Friday 24 Oct 2014 (Local Time) from KFSO Reporting Station
Overcast Overcast  
Wind Chill: 36°   Ceiling: 1100
Heat Index: 41°   Visibility: 10mi
Dew Point: 39°   Wind: 8mph
Humidity: 92%   Direction: 360°N
Pressure: 29.87"   Gusts: NA
Location:  44.8764°N, 72.758°W
Report Text: KFSO 241155Z AUTO 36007KT 10SM OVC011 05/04 A2987 RMK AO2 T00500038 10050 20045
Loading
Personal Weather Stations






























Interactive Weather Map
Tropical Storm Tracking
New forecast layout! Learn more

10-Day Weather Forecast

Advertisements
Track Severe Weather on mobile